createdAt,value
2018-06-24T00:00:54.103Z,75.92
2018-06-24T00:03:28.676Z,75.37
2018-06-24T00:06:03.384Z,75.18
2018-06-24T00:08:38.057Z,74.83
2018-06-24T00:11:12.797Z,75.33
2018-06-24T00:13:47.506Z,75.78
2018-06-24T00:16:21.939Z,77.24
2018-06-24T00:18:56.639Z,78.40
2018-06-24T00:21:31.196Z,79.04
2018-06-24T00:24:05.844Z,79.48
2018-06-24T00:26:40.239Z,78.95
2018-06-24T00:29:14.772Z,79.51
2018-06-24T00:31:49.212Z,79.65
2018-06-24T00:34:23.672Z,79.86
2018-06-24T00:36:58.161Z,79.35
2018-06-24T00:39:32.773Z,79.25
2018-06-24T00:42:07.433Z,79.86
2018-06-24T00:44:42.028Z,80.05
2018-06-24T00:47:16.678Z,80.11
2018-06-24T00:49:51.324Z,79.25
2018-06-24T00:52:25.869Z,79.10
2018-06-24T00:55:00.540Z,78.99
2018-06-24T00:57:35.005Z,77.87
2018-06-24T01:00:14.364Z,76.87
2018-06-24T01:02:48.816Z,77.19
2018-06-24T01:05:23.508Z,77.67
2018-06-24T01:07:58.127Z,77.83
2018-06-24T01:10:32.788Z,78.35
2018-06-24T01:13:07.436Z,79.46
2018-06-24T01:15:42.113Z,79.56
2018-06-24T01:18:16.627Z,79.58
2018-06-24T01:20:51.448Z,78.51
2018-06-24T01:23:25.984Z,78.72
2018-06-24T01:26:00.348Z,79.40
2018-06-24T01:28:35.114Z,78.72
2018-06-24T01:31:09.688Z,75.04
2018-06-24T01:33:44.438Z,74.03
2018-06-24T01:36:19.229Z,73.57
2018-06-24T01:38:53.833Z,73.33
2018-06-24T01:41:28.419Z,72.98
2018-06-24T01:44:02.897Z,72.85
2018-06-24T01:46:37.497Z,72.97
2018-06-24T01:49:12.002Z,72.19
2018-06-24T01:51:46.610Z,72.26
2018-06-24T01:54:21.246Z,73.31
2018-06-24T01:56:55.794Z,74.91
2018-06-24T01:59:30.172Z,72.82
2018-06-24T02:02:04.694Z,74.07
2018-06-24T02:04:39.316Z,75.97
2018-06-24T02:07:14.018Z,75.75
2018-06-24T02:09:48.689Z,76.59
2018-06-24T02:12:23.172Z,76.58
2018-06-24T02:14:57.564Z,77.86
2018-06-24T02:17:32.033Z,77.52
2018-06-24T02:20:06.767Z,78.02
2018-06-24T02:22:41.314Z,77.61
2018-06-24T02:25:15.970Z,78.90
2018-06-24T02:27:50.670Z,78.00
2018-06-24T02:30:25.262Z,78.27
2018-06-24T02:32:59.710Z,78.83
2018-06-24T02:35:34.107Z,79.02
2018-06-24T02:38:08.659Z,79.12
2018-06-24T02:40:43.239Z,77.78
2018-06-24T02:43:19.555Z,79.07
2018-06-24T02:45:54.024Z,79.30
2018-06-24T02:48:28.414Z,80.87
2018-06-24T02:51:03.668Z,80.34
2018-06-24T02:53:38.360Z,81.00
2018-06-24T02:56:12.817Z,81.02
2018-06-24T02:58:47.232Z,81.56
2018-06-24T03:01:21.895Z,82.05
2018-06-24T03:03:56.517Z,82.14
2018-06-24T03:06:30.989Z,81.80
2018-06-24T03:09:08.360Z,81.93
2018-06-24T03:11:42.894Z,82.71
2018-06-24T03:14:17.746Z,81.88
2018-06-24T03:16:52.885Z,80.38
2018-06-24T03:19:27.526Z,81.78
2018-06-24T03:22:02.201Z,79.97
2018-06-24T03:24:36.734Z,80.82
2018-06-24T03:27:11.324Z,80.68
2018-06-24T03:29:46.637Z,79.82
2018-06-24T03:32:21.566Z,77.37
2018-06-24T03:34:56.121Z,78.19
2018-06-24T03:37:30.588Z,78.31
2018-06-24T03:40:05.434Z,76.95
2018-06-24T03:42:39.918Z,78.11
2018-06-24T03:45:14.496Z,78.97
2018-06-24T03:47:49.021Z,79.20
2018-06-24T03:50:23.421Z,79.75
2018-06-24T03:52:57.892Z,79.09
2018-06-24T03:55:32.438Z,80.40
2018-06-24T03:58:06.983Z,79.75
2018-06-24T04:00:41.493Z,78.43
2018-06-24T04:03:15.882Z,78.79
2018-06-24T04:05:50.387Z,78.29
2018-06-24T04:08:24.960Z,78.54
2018-06-24T04:10:59.432Z,78.68
2018-06-24T04:13:33.904Z,79.11
2018-06-24T04:16:08.421Z,78.27
2018-06-24T04:18:43.862Z,78.39
2018-06-24T04:21:18.402Z,79.12
2018-06-24T04:23:52.956Z,76.98
2018-06-24T04:26:27.492Z,76.20
2018-06-24T04:29:02.052Z,76.74
2018-06-24T04:31:36.840Z,75.93
2018-06-24T04:34:11.347Z,75.07
2018-06-24T04:36:46.032Z,74.36
2018-06-24T04:39:20.680Z,74.36
2018-06-24T04:41:55.095Z,72.00
2018-06-24T04:44:29.464Z,73.09
2018-06-24T04:47:03.824Z,72.22
2018-06-24T04:49:38.214Z,72.60
2018-06-24T04:52:13.162Z,71.55
2018-06-24T04:54:47.798Z,73.08
2018-06-24T04:57:22.420Z,72.97
2018-06-24T04:59:57.528Z,70.88
2018-06-24T05:02:32.672Z,69.49
2018-06-24T05:05:07.466Z,70.68
2018-06-24T05:07:42.161Z,71.80
2018-06-24T05:10:16.796Z,72.61
2018-06-24T05:12:51.411Z,73.39
2018-06-24T05:15:26.190Z,71.91
2018-06-24T05:18:01.210Z,69.53
2018-06-24T05:20:36.389Z,67.98
2018-06-24T05:23:12.144Z,67.66
2018-06-24T05:25:46.744Z,67.50
2018-06-24T05:28:21.438Z,66.26
2018-06-24T05:30:55.967Z,66.25
2018-06-24T05:33:30.463Z,66.69
2018-06-24T05:36:05.239Z,66.32
2018-06-24T05:38:40.393Z,65.85
2018-06-24T05:41:14.948Z,66.43
2018-06-24T05:43:49.438Z,65.05
2018-06-24T05:46:23.916Z,65.28
2018-06-24T05:48:58.948Z,64.76
2018-06-24T05:51:33.416Z,65.86
2018-06-24T05:54:08.044Z,64.92
2018-06-24T05:56:42.626Z,64.46
2018-06-24T05:59:16.972Z,64.09
2018-06-24T06:01:52.924Z,63.36
2018-06-24T06:04:27.472Z,63.60
2018-06-24T06:07:01.932Z,63.25
2018-06-24T06:09:36.477Z,62.20
2018-06-24T06:12:10.889Z,61.01
2018-06-24T06:14:45.524Z,62.03
2018-06-24T06:17:19.996Z,62.56
2018-06-24T06:19:54.615Z,62.18
2018-06-24T06:22:29.064Z,62.62
2018-06-24T06:25:03.508Z,61.00
2018-06-24T06:27:38.277Z,60.07
2018-06-24T06:30:12.688Z,61.09
2018-06-24T06:32:47.320Z,60.70
2018-06-24T06:35:21.763Z,60.33
2018-06-24T06:37:56.393Z,58.67
2018-06-24T06:40:31.018Z,59.41
2018-06-24T06:43:05.602Z,60.38
2018-06-24T06:45:40.575Z,58.89
2018-06-24T06:48:15.053Z,56.41
2018-06-24T06:50:49.526Z,54.40
2018-06-24T06:53:24.034Z,55.08
2018-06-24T06:55:58.453Z,53.32
2018-06-24T06:58:33.035Z,52.73
2018-06-24T07:01:07.484Z,54.58
2018-06-24T07:03:42.025Z,54.51
2018-06-24T07:06:16.474Z,51.91
2018-06-24T07:08:51.066Z,54.81
2018-06-24T07:11:25.674Z,55.86
2018-06-24T07:14:00.151Z,56.13
2018-06-24T07:16:34.892Z,58.40
2018-06-24T07:19:09.439Z,55.82
2018-06-24T07:21:44.054Z,59.11
2018-06-24T07:24:18.659Z,59.28
2018-06-24T07:26:53.038Z,59.05
2018-06-24T07:29:27.564Z,56.77
2018-06-24T07:32:02.079Z,57.64
2018-06-24T07:34:37.256Z,59.56
2018-06-24T07:37:11.896Z,61.49
2018-06-24T07:39:46.512Z,61.42
2018-06-24T07:42:21.136Z,62.09
2018-06-24T07:44:55.736Z,61.95
2018-06-24T07:47:30.116Z,62.07
2018-06-24T07:50:04.750Z,60.83
2018-06-24T07:52:39.201Z,60.52
2018-06-24T07:55:13.610Z,61.13
2018-06-24T07:57:48.554Z,60.39
2018-06-24T08:00:23.105Z,60.01
2018-06-24T08:02:57.638Z,60.25
2018-06-24T08:05:32.342Z,63.64
2018-06-24T08:08:07.096Z,64.47
2018-06-24T08:10:43.039Z,65.79
2018-06-24T08:13:17.800Z,64.64
2018-06-24T08:15:53.155Z,64.14
2018-06-24T08:18:27.994Z,64.21
2018-06-24T08:21:02.803Z,63.38
2018-06-24T08:23:45.179Z,63.93
2018-06-24T08:26:19.863Z,63.22
2018-06-24T08:28:54.914Z,60.91
2018-06-24T08:31:29.733Z,59.86
2018-06-24T08:34:04.271Z,59.46
2018-06-24T08:36:38.912Z,58.96
2018-06-24T08:39:13.368Z,60.12
2018-06-24T08:41:55.118Z,60.29
2018-06-24T08:44:30.412Z,57.66
2018-06-24T08:47:05.228Z,54.42
2018-06-24T08:49:39.850Z,56.36
2018-06-24T08:52:15.776Z,57.99
2018-06-24T08:54:50.521Z,55.26
2018-06-24T08:57:26.132Z,56.99
2018-06-24T09:00:01.774Z,54.51
2018-06-24T09:02:37.152Z,54.02
2018-06-24T09:05:12.383Z,53.08
2018-06-24T09:07:46.936Z,48.46
2018-06-24T09:10:21.345Z,48.90
2018-06-24T09:12:59.308Z,50.63
2018-06-24T09:15:34.172Z,52.40
2018-06-24T09:18:08.705Z,54.81
2018-06-24T09:20:43.416Z,55.61
2018-06-24T09:23:18.042Z,56.89
2018-06-24T09:25:52.573Z,55.55
2018-06-24T09:28:27.256Z,55.83
2018-06-24T09:31:01.924Z,55.14
2018-06-24T09:33:36.454Z,55.54
2018-06-24T09:36:11.066Z,56.33
2018-06-24T09:38:45.733Z,53.75
2018-06-24T09:41:20.458Z,52.97
2018-06-24T09:43:54.888Z,52.92
2018-06-24T09:46:29.276Z,52.49
2018-06-24T09:49:04.153Z,52.50
2018-06-24T09:51:38.600Z,48.76
2018-06-24T09:54:13.145Z,47.74
2018-06-24T09:56:47.665Z,47.03
2018-06-24T09:59:22.422Z,48.56
2018-06-24T10:01:57.145Z,51.79
2018-06-24T10:04:31.709Z,50.05
2018-06-24T10:07:06.248Z,48.71
2018-06-24T10:09:40.748Z,47.82
2018-06-24T10:12:15.216Z,46.46
2018-06-24T10:14:49.716Z,43.76
2018-06-24T10:17:24.312Z,41.31
2018-06-24T10:19:58.886Z,45.30
2018-06-24T10:22:33.483Z,43.55
2018-06-24T10:25:07.953Z,43.39
2018-06-24T10:27:42.305Z,46.54
2018-06-24T10:30:16.884Z,49.15
2018-06-24T10:32:51.546Z,43.38
2018-06-24T10:35:26.061Z,42.82
2018-06-24T10:38:00.640Z,45.92
2018-06-24T10:40:35.171Z,47.29
2018-06-24T10:43:09.809Z,47.51
2018-06-24T10:45:45.046Z,46.72
2018-06-24T10:48:19.620Z,44.56
2018-06-24T10:50:54.197Z,46.74
2018-06-24T10:53:28.756Z,47.17
2018-06-24T10:56:03.162Z,44.56
2018-06-24T10:58:37.860Z,44.39
2018-06-24T11:01:12.432Z,43.47
2018-06-24T11:03:47.125Z,41.51
2018-06-24T11:06:22.590Z,42.93
2018-06-24T11:08:57.129Z,40.94
2018-06-24T11:11:31.745Z,38.75
2018-06-24T11:14:06.519Z,41.53
2018-06-24T11:16:41.056Z,41.91
2018-06-24T11:19:15.504Z,42.19
2018-06-24T11:21:50.143Z,41.81
2018-06-24T11:24:24.620Z,40.00
2018-06-24T11:26:59.200Z,39.00
2018-06-24T11:29:33.675Z,40.19
2018-06-24T11:32:08.371Z,39.08
2018-06-24T11:34:43.041Z,39.42
2018-06-24T11:37:17.617Z,42.85
2018-06-24T11:39:52.033Z,45.18
2018-06-24T11:42:26.563Z,43.24
2018-06-24T11:45:01.200Z,43.05
2018-06-24T11:47:35.781Z,43.16
2018-06-24T11:50:10.180Z,43.52
2018-06-24T11:52:44.950Z,45.99
2018-06-24T11:55:19.448Z,45.39
2018-06-24T11:57:53.796Z,46.41
2018-06-24T12:00:28.240Z,46.86
2018-06-24T12:03:03.058Z,46.43
2018-06-24T12:05:37.628Z,46.18
2018-06-24T12:08:12.152Z,45.96
2018-06-24T12:10:46.773Z,46.50
2018-06-24T12:13:21.454Z,44.17
2018-06-24T12:15:56.144Z,45.34
2018-06-24T12:18:30.784Z,44.51
2018-06-24T12:21:05.299Z,44.04
2018-06-24T12:23:39.770Z,43.27
2018-06-24T12:26:14.073Z,43.21
2018-06-24T12:28:48.846Z,44.32
2018-06-24T12:31:23.666Z,45.02
2018-06-24T12:33:58.483Z,44.72
2018-06-24T12:36:38.248Z,45.68
2018-06-24T12:39:14.975Z,46.68
2018-06-24T12:41:49.564Z,46.82
2018-06-24T12:44:24.160Z,47.69
2018-06-24T12:46:58.881Z,47.39
2018-06-24T12:49:33.486Z,45.54
2018-06-24T12:52:08.096Z,44.86
2018-06-24T12:54:42.613Z,45.03
2018-06-24T12:57:17.079Z,45.25
2018-06-24T12:59:51.755Z,45.34
2018-06-24T13:02:26.048Z,46.40
2018-06-24T13:05:00.488Z,47.15
2018-06-24T13:07:34.863Z,47.17
2018-06-24T13:10:09.269Z,45.72
2018-06-24T13:12:43.587Z,46.38
2018-06-24T13:15:18.016Z,46.12
2018-06-24T13:17:52.256Z,46.79
2018-06-24T13:20:26.657Z,46.56
2018-06-24T13:23:01.068Z,47.00
2018-06-24T13:25:35.616Z,48.33
2018-06-24T13:28:10.085Z,48.89
2018-06-24T13:30:44.427Z,47.09
2018-06-24T13:33:18.757Z,46.66
2018-06-24T13:35:53.187Z,48.26
2018-06-24T13:38:27.641Z,48.31
2018-06-24T13:41:02.020Z,48.17
2018-06-24T13:43:36.369Z,47.13
2018-06-24T13:46:10.853Z,48.24
2018-06-24T13:48:45.080Z,49.03
2018-06-24T13:51:19.384Z,47.75
2018-06-24T13:53:53.854Z,49.46
2018-06-24T13:56:28.402Z,50.39
2018-06-24T13:59:02.783Z,51.41
2018-06-24T14:01:37.224Z,51.03
2018-06-24T14:04:11.675Z,50.73
2018-06-24T14:06:46.100Z,50.99
2018-06-24T14:09:20.433Z,51.59
2018-06-24T14:11:54.799Z,51.08
2018-06-24T14:14:29.325Z,51.88
2018-06-24T14:17:03.854Z,52.77
2018-06-24T14:19:38.235Z,53.44
2018-06-24T14:22:12.491Z,53.76
2018-06-24T14:24:47.029Z,52.79
2018-06-24T14:27:21.477Z,52.97
2018-06-24T14:29:55.696Z,53.81
2018-06-24T14:32:30.114Z,54.12
2018-06-24T14:35:04.535Z,55.00
2018-06-24T14:37:38.824Z,55.11
2018-06-24T14:40:13.828Z,55.07
2018-06-24T14:42:48.243Z,55.93
2018-06-24T14:45:22.543Z,56.01
2018-06-24T14:47:57.493Z,56.83
2018-06-24T14:50:31.893Z,56.71
2018-06-24T14:53:06.243Z,57.04
2018-06-24T14:55:40.610Z,57.31
2018-06-24T14:58:14.817Z,57.22
2018-06-24T15:00:49.224Z,57.06
2018-06-24T15:03:23.605Z,57.71
2018-06-24T15:05:57.852Z,56.69
2018-06-24T15:08:32.272Z,57.88
2018-06-24T15:11:06.680Z,58.33
2018-06-24T15:13:41.024Z,58.39
2018-06-24T15:16:15.324Z,59.05
2018-06-24T15:18:49.856Z,58.78
2018-06-24T15:21:24.075Z,59.15
2018-06-24T15:23:58.800Z,58.52
2018-06-24T15:26:33.050Z,58.67
2018-06-24T15:29:07.388Z,57.91
2018-06-24T15:31:41.704Z,57.74
2018-06-24T15:34:16.040Z,58.70
2018-06-24T15:36:50.300Z,59.49
2018-06-24T15:39:24.691Z,59.00
2018-06-24T15:41:59.067Z,59.45
2018-06-24T15:44:33.299Z,59.52
2018-06-24T15:47:07.722Z,59.33
2018-06-24T15:49:42.065Z,60.20
2018-06-24T15:52:16.437Z,60.40
2018-06-24T15:54:50.859Z,60.01
2018-06-24T15:57:25.244Z,60.71
2018-06-24T15:59:59.632Z,60.64
2018-06-24T16:02:34.019Z,61.13
2018-06-24T16:05:08.443Z,61.45
2018-06-24T16:07:42.852Z,62.01
2018-06-24T16:10:17.372Z,62.14
2018-06-24T16:12:52.525Z,61.83
2018-06-24T16:15:27.005Z,62.03
2018-06-24T16:18:01.644Z,62.03
2018-06-24T16:20:36.572Z,62.00
2018-06-24T16:23:11.117Z,62.71
2018-06-24T16:25:45.781Z,63.03
2018-06-24T16:28:20.329Z,64.48
2018-06-24T16:30:54.904Z,64.44
2018-06-24T16:33:29.309Z,65.09
2018-06-24T16:36:03.877Z,65.86
2018-06-24T16:38:38.295Z,65.91
2018-06-24T16:41:12.855Z,66.79
2018-06-24T16:43:47.261Z,69.72
2018-06-24T16:46:21.813Z,72.40
2018-06-24T16:48:57.303Z,72.01
2018-06-24T16:51:32.070Z,72.62
2018-06-24T16:54:06.700Z,71.97
2018-06-24T16:56:41.313Z,71.08
2018-06-24T16:59:15.912Z,70.55
2018-06-24T17:01:51.029Z,69.41
2018-06-24T17:04:25.889Z,70.28
2018-06-24T17:07:00.710Z,70.28
2018-06-24T17:09:35.293Z,70.63
2018-06-24T17:12:09.892Z,70.17
2018-06-24T17:14:44.718Z,72.26
2018-06-24T17:17:20.145Z,71.81
2018-06-24T17:19:54.750Z,71.83
2018-06-24T17:22:29.403Z,72.55
2018-06-24T17:25:04.040Z,71.66
2018-06-24T17:27:39.889Z,72.65
2018-06-24T17:30:14.396Z,71.42
2018-06-24T17:32:48.892Z,71.62
2018-06-24T17:35:23.577Z,71.09
2018-06-24T17:37:58.439Z,70.81
2018-06-24T17:40:32.923Z,70.69
2018-06-24T17:43:07.553Z,71.53
2018-06-24T17:45:42.182Z,74.43
2018-06-24T17:48:16.720Z,77.02
2018-06-24T17:50:51.481Z,78.38
2018-06-24T17:53:26.287Z,78.48
2018-06-24T17:56:00.990Z,78.79
2018-06-24T17:58:35.635Z,79.46
2018-06-24T18:01:11.260Z,80.14
2018-06-24T18:03:46.113Z,78.99
2018-06-24T18:06:20.853Z,79.97
2018-06-24T18:08:56.316Z,79.81
2018-06-24T18:11:30.941Z,79.79
2018-06-24T18:14:05.481Z,79.92
2018-06-24T18:16:40.216Z,79.84
2018-06-24T18:19:14.645Z,80.06
2018-06-24T18:21:49.196Z,79.04
2018-06-24T18:24:23.775Z,79.34
2018-06-24T18:26:58.292Z,79.20
2018-06-24T18:29:32.801Z,79.81
2018-06-24T18:32:07.377Z,79.35
2018-06-24T18:34:42.005Z,80.42
2018-06-24T18:37:16.540Z,80.37
2018-06-24T18:39:51.146Z,81.41
2018-06-24T18:42:25.880Z,83.33
2018-06-24T18:45:00.367Z,83.63
2018-06-24T18:47:34.856Z,83.99
2018-06-24T18:50:09.527Z,85.16
2018-06-24T18:52:44.173Z,85.44
2018-06-24T18:55:18.706Z,86.31
2018-06-24T18:57:53.314Z,87.20
2018-06-24T19:00:27.917Z,87.64
2018-06-24T19:03:02.476Z,86.97
2018-06-24T19:05:36.805Z,86.76
2018-06-24T19:08:11.344Z,86.29
2018-06-24T19:10:45.881Z,86.21
2018-06-24T19:13:20.513Z,86.13
2018-06-24T19:15:55.204Z,87.13
2018-06-24T19:18:29.768Z,85.80
2018-06-24T19:21:04.536Z,86.32
2018-06-24T19:23:39.161Z,86.06
2018-06-24T19:26:13.821Z,86.06
2018-06-24T19:28:48.428Z,86.00
2018-06-24T19:31:22.764Z,85.68
2018-06-24T19:33:57.296Z,84.92
2018-06-24T19:36:31.892Z,85.46
2018-06-24T19:39:09.101Z,85.26
2018-06-24T19:41:43.556Z,85.35
2018-06-24T19:44:18.174Z,85.12
2018-06-24T19:46:52.638Z,85.65
2018-06-24T19:49:27.349Z,85.85
2018-06-24T19:52:01.717Z,85.72
2018-06-24T19:54:36.418Z,85.61
2018-06-24T19:57:10.987Z,85.62
2018-06-24T19:59:45.549Z,85.88
2018-06-24T20:02:20.181Z,85.52
2018-06-24T20:04:54.749Z,85.68
2018-06-24T20:07:29.412Z,85.42
2018-06-24T20:10:03.866Z,86.29
2018-06-24T20:12:38.637Z,86.35
2018-06-24T20:15:13.117Z,86.69
2018-06-24T20:17:47.661Z,87.76
2018-06-24T20:20:22.246Z,88.39
2018-06-24T20:22:56.730Z,88.40
2018-06-24T20:25:31.377Z,88.92
2018-06-24T20:28:06.318Z,89.22
2018-06-24T20:30:40.993Z,89.70
2018-06-24T20:33:15.484Z,90.03
2018-06-24T20:35:50.316Z,88.74
2018-06-24T20:38:24.944Z,88.56
2018-06-24T20:40:59.605Z,88.06
2018-06-24T20:43:34.930Z,87.44
2018-06-24T20:46:09.662Z,87.73
2018-06-24T20:48:44.305Z,88.04
2018-06-24T20:51:18.968Z,87.35
2018-06-24T20:53:56.565Z,87.60
2018-06-24T20:56:31.300Z,87.65
2018-06-24T20:59:09.179Z,87.53
2018-06-24T21:01:44.209Z,87.82
2018-06-24T21:04:19.742Z,87.90
2018-06-24T21:06:54.276Z,88.25
2018-06-24T21:09:34.594Z,88.67
2018-06-24T21:12:08.989Z,88.40
2018-06-24T21:14:43.718Z,89.22
2018-06-24T21:17:18.427Z,88.82
2018-06-24T21:19:52.986Z,88.94
2018-06-24T21:22:27.505Z,89.02
2018-06-24T21:25:01.992Z,88.81
2018-06-24T21:27:36.527Z,88.73
2018-06-24T21:30:10.881Z,88.57
2018-06-24T21:32:45.226Z,88.78
2018-06-24T21:35:19.613Z,87.81
2018-06-24T21:37:54.083Z,87.89
2018-06-24T21:40:28.794Z,87.66
2018-06-24T21:43:03.490Z,88.18
2018-06-24T21:45:38.428Z,88.07
2018-06-24T21:48:12.892Z,88.22
2018-06-24T21:50:47.372Z,87.97
2018-06-24T21:53:21.926Z,88.19
2018-06-24T21:55:56.526Z,87.68
2018-06-24T21:58:30.982Z,87.68
2018-06-24T22:01:05.405Z,87.78
2018-06-24T22:03:39.744Z,87.21
2018-06-24T22:06:14.581Z,86.42
2018-06-24T22:08:49.088Z,86.85
2018-06-24T22:11:23.804Z,87.09
2018-06-24T22:13:58.344Z,87.15
2018-06-24T22:16:32.838Z,87.40
2018-06-24T22:19:07.664Z,87.06
2018-06-24T22:21:42.344Z,86.63
2018-06-24T22:24:16.870Z,86.69
2018-06-24T22:26:51.265Z,86.09
2018-06-24T22:29:25.682Z,86.18
2018-06-24T22:32:00.295Z,86.07
2018-06-24T22:34:34.718Z,87.03
2018-06-24T22:37:09.301Z,86.97
2018-06-24T22:39:43.732Z,87.57
2018-06-24T22:42:19.100Z,87.99
2018-06-24T22:44:53.767Z,88.48
2018-06-24T22:47:28.433Z,89.28
2018-06-24T22:50:03.146Z,89.67
2018-06-24T22:52:37.678Z,89.30
2018-06-24T22:55:12.364Z,89.71
2018-06-24T22:57:46.831Z,90.01
2018-06-24T23:00:21.409Z,89.87
2018-06-24T23:03:00.419Z,90.85
2018-06-24T23:05:35.152Z,90.40
2018-06-24T23:08:09.630Z,90.70
2018-06-24T23:10:44.152Z,90.80
2018-06-24T23:13:18.625Z,91.08
2018-06-24T23:15:53.114Z,90.52
2018-06-24T23:18:27.749Z,91.03
2018-06-24T23:21:02.449Z,90.90
2018-06-24T23:23:37.241Z,91.37
2018-06-24T23:26:11.845Z,91.58
2018-06-24T23:28:46.464Z,90.95
2018-06-24T23:31:21.077Z,91.26
2018-06-24T23:33:55.774Z,90.95
2018-06-24T23:36:30.384Z,91.11
2018-06-24T23:39:07.582Z,91.68
2018-06-24T23:41:42.169Z,91.72
2018-06-24T23:44:16.615Z,91.22
2018-06-24T23:46:51.119Z,91.13
2018-06-24T23:49:25.701Z,91.20
2018-06-24T23:52:00.468Z,91.04
2018-06-24T23:54:35.013Z,90.61
2018-06-24T23:57:09.477Z,90.22
2018-06-24T23:59:44.111Z,90.52
